createdAt,value
2022-08-03T00:00:39.809Z,24.29
2022-08-03T00:02:19.565Z,24.25
2022-08-03T00:03:59.322Z,24.25
2022-08-03T00:05:39.118Z,24.2
2022-08-03T00:07:18.877Z,24.19
2022-08-03T00:08:58.638Z,24.18
2022-08-03T00:10:38.399Z,24.15
2022-08-03T00:12:18.150Z,24.12
2022-08-03T00:13:57.947Z,24.1
2022-08-03T00:15:37.685Z,24.07
2022-08-03T00:17:17.435Z,24.06
2022-08-03T00:18:57.208Z,24.03
2022-08-03T00:20:36.966Z,24
2022-08-03T00:22:16.744Z,24.01
2022-08-03T00:23:56.504Z,23.98
2022-08-03T00:25:36.274Z,23.97
2022-08-03T00:27:16.020Z,23.95
2022-08-03T00:28:55.789Z,23.91
2022-08-03T00:30:35.562Z,23.89
2022-08-03T00:32:15.346Z,23.86
2022-08-03T00:33:55.114Z,23.85
2022-08-03T00:35:34.854Z,23.84
2022-08-03T00:37:14.612Z,23.81
2022-08-03T00:38:54.385Z,23.78
2022-08-03T00:40:34.138Z,23.78
2022-08-03T00:42:13.909Z,23.76
2022-08-03T00:43:53.690Z,23.75
2022-08-03T00:45:33.435Z,23.71
2022-08-03T00:47:13.200Z,23.7
2022-08-03T00:48:52.973Z,23.69
2022-08-03T00:50:32.741Z,23.65
2022-08-03T00:52:12.507Z,23.64
2022-08-03T00:53:52.264Z,23.63
2022-08-03T00:55:32.024Z,23.62
2022-08-03T00:57:11.783Z,23.59
2022-08-03T00:58:51.544Z,23.57
2022-08-03T01:00:31.313Z,23.56
2022-08-03T01:02:11.088Z,23.52
2022-08-03T01:03:50.846Z,23.52
2022-08-03T01:05:30.615Z,23.49
2022-08-03T01:08:50.138Z,23.47
2022-08-03T01:10:29.913Z,23.43
2022-08-03T01:12:09.665Z,23.44
2022-08-03T01:13:49.439Z,23.41
2022-08-03T01:15:29.197Z,23.39
2022-08-03T01:17:08.971Z,23.36
2022-08-03T01:18:48.730Z,23.35
2022-08-03T01:20:28.489Z,23.34
2022-08-03T01:22:08.262Z,23.32
2022-08-03T01:23:48.034Z,23.3
2022-08-03T01:25:27.790Z,23.29
2022-08-03T01:27:07.569Z,23.27
2022-08-03T01:28:47.306Z,23.26
2022-08-03T01:30:27.083Z,23.23
2022-08-03T01:32:06.841Z,23.23
2022-08-03T01:33:46.626Z,23.21
2022-08-03T01:35:26.369Z,23.19
2022-08-03T01:37:06.139Z,23.19
2022-08-03T01:38:45.910Z,23.18
2022-08-03T01:40:25.693Z,23.16
2022-08-03T01:42:05.441Z,23.13
2022-08-03T01:43:45.205Z,23.13
2022-08-03T01:45:24.968Z,23.1
2022-08-03T01:47:04.717Z,23.09
2022-08-03T01:48:44.485Z,23.07
2022-08-03T01:50:24.266Z,23.07
2022-08-03T01:52:04.034Z,23.05
2022-08-03T01:53:43.787Z,23.05
2022-08-03T01:55:23.552Z,23.02
2022-08-03T01:57:03.322Z,23.01
2022-08-03T01:58:43.100Z,23.01
2022-08-03T02:00:22.869Z,23
2022-08-03T02:02:02.618Z,22.97
2022-08-03T02:03:42.364Z,22.95
2022-08-03T02:05:22.131Z,22.95
2022-08-03T02:08:41.659Z,22.94
2022-08-03T02:10:21.434Z,22.91
2022-08-03T02:12:01.213Z,22.92
2022-08-03T02:13:40.961Z,22.88
2022-08-03T02:15:20.714Z,22.88
2022-08-03T02:17:00.478Z,22.87
2022-08-03T02:18:40.273Z,22.85
2022-08-03T02:20:20.014Z,22.87
2022-08-03T02:21:59.786Z,22.85
2022-08-03T02:23:39.548Z,22.83
2022-08-03T02:25:19.315Z,22.83
2022-08-03T02:28:38.844Z,22.8
2022-08-03T02:30:18.601Z,22.79
2022-08-03T02:31:58.363Z,22.8
2022-08-03T02:33:38.129Z,22.78
2022-08-03T02:35:17.888Z,22.78
2022-08-03T02:36:57.671Z,22.77
2022-08-03T02:38:37.423Z,22.75
2022-08-03T02:41:56.949Z,22.73
2022-08-03T02:43:36.715Z,22.75
2022-08-03T02:45:16.491Z,22.73
2022-08-03T02:46:56.275Z,22.71
2022-08-03T02:48:36.021Z,22.71
2022-08-03T02:50:15.772Z,22.71
2022-08-03T02:51:55.536Z,22.69
2022-08-03T02:53:35.307Z,22.69
2022-08-03T02:55:15.081Z,22.69
2022-08-03T02:58:34.594Z,22.67
2022-08-03T03:00:14.359Z,22.65
2022-08-03T03:01:54.129Z,22.67
2022-08-03T03:03:33.914Z,22.66
2022-08-03T03:05:13.659Z,22.65
2022-08-03T03:06:53.461Z,22.65
2022-08-03T03:08:33.192Z,22.65
2022-08-03T03:10:12.955Z,22.64
2022-08-03T03:11:52.716Z,22.62
2022-08-03T03:13:32.482Z,22.62
2022-08-03T03:15:12.259Z,22.66
2022-08-03T03:16:52.007Z,22.66
2022-08-03T03:18:31.785Z,22.69
2022-08-03T03:21:51.297Z,22.75
2022-08-03T03:23:31.090Z,22.78
2022-08-03T03:25:10.840Z,22.78
2022-08-03T03:26:50.600Z,22.81
2022-08-03T03:28:30.375Z,22.81
2022-08-03T03:30:10.119Z,22.84
2022-08-03T03:31:49.888Z,22.86
2022-08-03T03:33:29.677Z,22.88
2022-08-03T03:35:09.420Z,22.89
2022-08-03T03:36:49.192Z,22.89
2022-08-03T03:38:28.954Z,22.93
2022-08-03T03:40:08.714Z,22.92
2022-08-03T03:41:48.483Z,22.95
2022-08-03T03:43:28.234Z,22.95
2022-08-03T03:45:08.003Z,22.96
2022-08-03T03:46:47.769Z,22.97
2022-08-03T03:48:27.569Z,22.99
2022-08-03T03:50:07.297Z,23
2022-08-03T03:51:47.064Z,23.04
2022-08-03T03:53:26.834Z,23.02
2022-08-03T03:55:06.602Z,23.03
2022-08-03T03:56:46.361Z,23.04
2022-08-03T03:58:26.131Z,23.04
2022-08-03T04:00:05.897Z,23.05
2022-08-03T04:01:45.657Z,23.05
2022-08-03T04:03:25.433Z,23.06
2022-08-03T04:05:05.192Z,23.08
2022-08-03T04:06:44.948Z,23.07
2022-08-03T04:08:24.715Z,23.09
2022-08-03T04:11:44.275Z,23.11
2022-08-03T04:13:24.021Z,23.11
2022-08-03T04:15:03.778Z,23.12
2022-08-03T04:16:43.563Z,23.11
2022-08-03T04:18:23.311Z,23.15
2022-08-03T04:20:03.080Z,23.15
2022-08-03T04:21:42.852Z,23.15
2022-08-03T04:23:22.622Z,23.15
2022-08-03T04:25:02.384Z,23.17
2022-08-03T04:26:42.166Z,23.15
2022-08-03T04:28:21.931Z,23.17
2022-08-03T04:30:01.692Z,23.17
2022-08-03T04:31:41.477Z,23.18
2022-08-03T04:33:21.221Z,23.2
2022-08-03T04:35:00.999Z,23.18
2022-08-03T04:36:40.757Z,23.21
2022-08-03T04:38:20.522Z,23.23
2022-08-03T04:40:00.307Z,23.21
2022-08-03T04:41:40.069Z,23.21
2022-08-03T04:43:19.831Z,23.23
2022-08-03T04:44:59.596Z,23.22
2022-08-03T04:46:39.389Z,23.22
2022-08-03T04:48:19.124Z,23.21
2022-08-03T04:49:58.938Z,23.25
2022-08-03T04:51:38.676Z,23.24
2022-08-03T04:53:18.424Z,23.24
2022-08-03T04:54:58.220Z,23.24
2022-08-03T04:56:37.978Z,23.24
2022-08-03T04:58:17.728Z,23.25
2022-08-03T04:59:57.496Z,23.25
2022-08-03T05:01:37.261Z,23.26
2022-08-03T05:03:17.032Z,23.27
2022-08-03T05:04:56.813Z,23.29
2022-08-03T05:06:36.574Z,23.29
2022-08-03T05:08:16.336Z,23.29
2022-08-03T05:09:56.105Z,23.32
2022-08-03T05:11:35.879Z,23.33
2022-08-03T05:13:15.660Z,23.3
2022-08-03T05:14:55.416Z,23.35
2022-08-03T05:18:14.947Z,23.45
2022-08-03T05:19:54.765Z,23.51
2022-08-03T05:21:34.489Z,23.61
2022-08-03T05:23:14.262Z,23.68
2022-08-03T05:24:54.039Z,23.76
2022-08-03T05:26:33.821Z,23.79
2022-08-03T05:28:13.585Z,23.89
2022-08-03T05:29:53.342Z,23.96
2022-08-03T05:31:33.117Z,24.04
2022-08-03T05:33:12.887Z,24.1
2022-08-03T05:34:52.665Z,24.2
2022-08-03T05:36:32.425Z,24.26
2022-08-03T05:38:12.198Z,24.35
2022-08-03T05:39:51.969Z,24.42
2022-08-03T05:41:31.733Z,24.53
2022-08-03T05:43:11.505Z,24.6
2022-08-03T05:44:51.287Z,24.7
2022-08-03T05:46:31.056Z,24.8
2022-08-03T05:48:10.827Z,24.87
2022-08-03T05:49:50.607Z,24.94
2022-08-03T05:51:30.356Z,25.03
2022-08-03T05:53:10.133Z,25.14
2022-08-03T05:54:49.893Z,25.21
2022-08-03T05:56:29.658Z,25.3
2022-08-03T05:58:09.442Z,25.39
2022-08-03T05:59:49.207Z,25.46
2022-08-03T06:01:28.985Z,25.55
2022-08-03T06:03:08.747Z,25.65
2022-08-03T06:04:48.521Z,25.71
2022-08-03T06:06:28.293Z,25.81
2022-08-03T06:08:08.069Z,25.9
2022-08-03T06:09:47.845Z,25.96
2022-08-03T06:11:27.618Z,26.06
2022-08-03T06:13:07.371Z,26.13
2022-08-03T06:14:47.145Z,26.24
2022-08-03T06:16:26.910Z,26.31
2022-08-03T06:18:06.692Z,26.37
2022-08-03T06:19:46.467Z,26.47
2022-08-03T06:21:26.233Z,26.52
2022-08-03T06:23:06.002Z,26.63
2022-08-03T06:24:45.764Z,26.71
2022-08-03T06:26:25.530Z,26.76
2022-08-03T06:28:05.312Z,26.84
2022-08-03T06:29:45.103Z,26.92
2022-08-03T06:31:24.862Z,27
2022-08-03T06:33:04.630Z,27.06
2022-08-03T06:34:44.412Z,27.11
2022-08-03T06:36:24.161Z,27.22
2022-08-03T06:38:03.943Z,27.28
2022-08-03T06:39:43.727Z,27.35
2022-08-03T06:41:23.473Z,27.43
2022-08-03T06:43:03.243Z,27.46
2022-08-03T06:44:43.012Z,27.54
2022-08-03T06:46:22.796Z,27.61
2022-08-03T06:48:02.558Z,27.69
2022-08-03T06:49:42.334Z,27.74
2022-08-03T06:51:22.107Z,27.8
2022-08-03T06:53:01.893Z,27.85
2022-08-03T06:54:41.636Z,27.92
2022-08-03T06:56:21.426Z,27.98
2022-08-03T06:58:01.170Z,28.06
2022-08-03T06:59:40.943Z,28.09
2022-08-03T07:03:00.491Z,28.23
2022-08-03T07:04:40.272Z,28.27
2022-08-03T07:06:20.021Z,28.33
2022-08-03T07:07:59.791Z,28.39
2022-08-03T07:09:39.574Z,28.46
2022-08-03T07:11:19.333Z,28.49
2022-08-03T07:12:59.110Z,28.57
2022-08-03T07:14:38.874Z,28.64
2022-08-03T07:16:18.649Z,28.68
2022-08-03T07:17:58.431Z,28.73
2022-08-03T07:19:38.193Z,28.79
2022-08-03T07:21:17.974Z,28.84
2022-08-03T07:22:57.737Z,28.9
2022-08-03T07:24:37.506Z,28.95
2022-08-03T07:26:17.265Z,28.99
2022-08-03T07:27:57.037Z,29.04
2022-08-03T07:31:16.568Z,29.16
2022-08-03T07:32:56.349Z,29.23
2022-08-03T07:34:36.115Z,29.25
2022-08-03T07:36:15.886Z,29.29
2022-08-03T07:37:55.664Z,29.34
2022-08-03T07:39:35.427Z,29.41
2022-08-03T07:41:15.202Z,29.47
2022-08-03T07:42:54.966Z,29.5
2022-08-03T07:44:34.733Z,29.54
2022-08-03T07:46:14.506Z,29.63
2022-08-03T07:47:54.279Z,29.65
2022-08-03T07:49:34.047Z,29.7
2022-08-03T07:51:13.810Z,29.75
2022-08-03T07:52:53.601Z,29.8
2022-08-03T07:54:33.352Z,29.85
2022-08-03T07:56:13.124Z,29.93
2022-08-03T07:57:52.905Z,29.95
2022-08-03T07:59:32.661Z,30
2022-08-03T08:01:12.440Z,30.07
2022-08-03T08:02:52.249Z,30.1
2022-08-03T08:04:31.981Z,30.16
2022-08-03T08:06:11.743Z,30.21
2022-08-03T08:07:51.523Z,30.26
2022-08-03T08:09:31.287Z,30.32
2022-08-03T08:11:11.054Z,30.37
2022-08-03T08:12:50.845Z,30.4
2022-08-03T08:14:30.612Z,30.47
2022-08-03T08:16:10.376Z,30.52
2022-08-03T08:17:50.143Z,30.55
2022-08-03T08:19:29.914Z,30.63
2022-08-03T08:21:09.680Z,30.67
2022-08-03T08:22:49.459Z,30.7
2022-08-03T08:24:29.226Z,30.76
2022-08-03T08:26:08.999Z,30.81
2022-08-03T08:27:48.775Z,30.85
2022-08-03T08:29:28.548Z,30.92
2022-08-03T08:31:08.302Z,30.96
2022-08-03T08:32:48.117Z,30.99
2022-08-03T08:34:27.854Z,31
2022-08-03T08:36:07.630Z,30.93
2022-08-03T08:37:47.394Z,30.88
2022-08-03T08:39:27.148Z,30.8
2022-08-03T08:41:06.922Z,30.75
2022-08-03T08:42:46.700Z,30.69
2022-08-03T08:44:26.466Z,30.63
2022-08-03T08:46:06.239Z,30.59
2022-08-03T08:47:45.996Z,30.56
2022-08-03T08:49:25.761Z,30.6
2022-08-03T08:51:05.544Z,30.62
2022-08-03T08:52:45.319Z,30.64
2022-08-03T08:54:25.068Z,30.65
2022-08-03T08:56:04.854Z,30.69
2022-08-03T08:57:44.608Z,30.72
2022-08-03T08:59:24.401Z,30.76
2022-08-03T09:01:04.156Z,30.78
2022-08-03T09:02:43.957Z,30.81
2022-08-03T09:04:23.732Z,30.84
2022-08-03T09:06:03.462Z,30.88
2022-08-03T09:07:43.259Z,30.9
2022-08-03T09:11:02.790Z,30.95
2022-08-03T09:12:42.540Z,30.99
2022-08-03T09:14:22.318Z,31.03
2022-08-03T09:16:02.091Z,31.05
2022-08-03T09:17:41.867Z,31.1
2022-08-03T09:19:21.618Z,31.13
2022-08-03T09:21:01.406Z,31.17
2022-08-03T09:22:41.177Z,31.18
2022-08-03T09:24:20.933Z,31.22
2022-08-03T09:26:00.706Z,31.26
2022-08-03T09:27:40.492Z,31.3
2022-08-03T09:29:20.251Z,31.33
2022-08-03T09:31:00.017Z,31.39
2022-08-03T09:32:39.797Z,31.39
2022-08-03T09:34:19.568Z,31.43
2022-08-03T09:35:59.346Z,31.47
2022-08-03T09:37:39.111Z,31.52
2022-08-03T09:39:18.879Z,31.53
2022-08-03T09:40:58.642Z,31.6
2022-08-03T09:42:38.419Z,31.62
2022-08-03T09:44:18.189Z,31.65
2022-08-03T09:45:57.962Z,31.68
2022-08-03T09:47:37.766Z,31.72
2022-08-03T09:49:17.511Z,31.77
2022-08-03T09:50:57.276Z,31.81
2022-08-03T09:52:37.030Z,31.84
2022-08-03T09:54:16.802Z,31.87
2022-08-03T09:55:56.593Z,31.88
2022-08-03T09:57:36.371Z,31.92
2022-08-03T09:59:16.113Z,31.96
2022-08-03T10:00:55.900Z,31.99
2022-08-03T10:02:35.665Z,32.02
2022-08-03T10:04:15.443Z,32.06
2022-08-03T10:07:34.984Z,32.13
2022-08-03T10:09:14.751Z,32.18
2022-08-03T10:10:54.520Z,32.21
2022-08-03T10:12:34.289Z,32.25
2022-08-03T10:14:14.056Z,32.29
2022-08-03T10:15:53.835Z,32.34
2022-08-03T10:17:33.587Z,32.34
2022-08-03T10:19:13.376Z,32.4
2022-08-03T10:20:53.143Z,32.43
2022-08-03T10:22:32.912Z,32.46
2022-08-03T10:24:12.686Z,32.52
2022-08-03T10:27:32.273Z,32.57
2022-08-03T10:29:11.997Z,32.58
2022-08-03T10:30:51.751Z,32.61
2022-08-03T10:32:31.521Z,32.66
2022-08-03T10:34:11.313Z,32.7
2022-08-03T10:35:51.081Z,32.72
2022-08-03T10:37:30.843Z,32.75
2022-08-03T10:40:50.379Z,32.83
2022-08-03T10:42:30.155Z,32.87
2022-08-03T10:44:09.932Z,32.89
2022-08-03T10:45:49.697Z,32.95
2022-08-03T10:47:29.470Z,32.97
2022-08-03T10:50:49.012Z,33
2022-08-03T10:52:28.801Z,33.04
2022-08-03T10:54:08.545Z,33.09
2022-08-03T10:55:48.327Z,33.12
2022-08-03T10:57:28.119Z,33.16
2022-08-03T11:00:47.618Z,33.21
2022-08-03T11:02:27.402Z,33.24
2022-08-03T11:04:07.183Z,33.28
2022-08-03T11:05:46.946Z,33.3
2022-08-03T11:07:26.731Z,33.33
2022-08-03T11:10:46.273Z,33.41
2022-08-03T11:12:26.030Z,33.43
2022-08-03T11:14:05.804Z,33.43
2022-08-03T11:15:45.581Z,33.47
2022-08-03T11:17:25.335Z,33.52
2022-08-03T11:19:05.127Z,33.57
2022-08-03T11:20:44.876Z,33.59
2022-08-03T11:22:24.651Z,33.61
2022-08-03T11:24:04.427Z,33.63
2022-08-03T11:25:44.201Z,33.66
2022-08-03T11:27:23.969Z,33.7
2022-08-03T11:29:03.730Z,33.75
2022-08-03T11:30:43.509Z,33.78
2022-08-03T11:32:23.281Z,33.8
2022-08-03T11:34:03.061Z,33.86
2022-08-03T11:35:42.837Z,33.89
2022-08-03T11:37:22.583Z,33.9
2022-08-03T11:39:02.346Z,33.93
2022-08-03T11:40:42.158Z,33.99
2022-08-03T11:42:21.897Z,34
2022-08-03T11:44:01.664Z,34.03
2022-08-03T11:45:41.444Z,34.05
2022-08-03T11:47:21.210Z,34.09
2022-08-03T11:49:00.969Z,34.13
2022-08-03T11:50:40.745Z,34.14
2022-08-03T11:52:20.511Z,34.18
2022-08-03T11:54:00.268Z,34.22
2022-08-03T11:55:40.057Z,34.24
2022-08-03T11:57:19.812Z,34.25
2022-08-03T11:58:59.583Z,34.29
2022-08-03T12:00:39.358Z,34.33
2022-08-03T12:03:58.907Z,34.36
2022-08-03T12:05:38.652Z,34.39
2022-08-03T12:07:18.424Z,34.45
2022-08-03T12:13:57.509Z,34.54
2022-08-03T12:15:37.274Z,34.57
2022-08-03T12:17:17.047Z,34.59
2022-08-03T12:18:56.844Z,34.62
2022-08-03T12:20:36.591Z,34.65
2022-08-03T12:22:16.377Z,34.66
2022-08-03T12:23:56.122Z,34.72
2022-08-03T12:25:35.893Z,34.73
2022-08-03T12:27:15.660Z,34.77
2022-08-03T12:28:55.426Z,34.81
2022-08-03T12:30:35.202Z,34.8
2022-08-03T12:32:14.965Z,34.86
2022-08-03T12:33:54.746Z,34.89
2022-08-03T12:37:14.293Z,34.96
2022-08-03T12:38:54.047Z,34.99
2022-08-03T12:40:33.815Z,35.03
2022-08-03T12:42:13.584Z,35.03
2022-08-03T12:43:53.348Z,35.05
2022-08-03T12:45:33.136Z,35.11
2022-08-03T12:47:12.917Z,35.14
2022-08-03T12:50:32.448Z,35.18
2022-08-03T12:52:12.207Z,35.22
2022-08-03T12:53:51.966Z,35.23
2022-08-03T12:55:31.739Z,35.28
2022-08-03T12:57:11.512Z,35.29
2022-08-03T12:58:51.299Z,35.32
2022-08-03T13:00:31.051Z,35.36
2022-08-03T13:02:10.813Z,35.37
2022-08-03T13:03:50.600Z,35.41
2022-08-03T13:05:30.365Z,35.43
2022-08-03T13:07:10.165Z,35.46
2022-08-03T13:08:49.913Z,35.49
2022-08-03T13:10:29.670Z,35.5
2022-08-03T13:12:09.435Z,35.52
2022-08-03T13:13:49.202Z,35.57
2022-08-03T13:15:28.977Z,35.59
2022-08-03T13:17:08.752Z,35.62
2022-08-03T13:18:48.519Z,35.63
2022-08-03T13:20:28.302Z,35.65
2022-08-03T13:22:08.071Z,35.68
2022-08-03T13:23:47.828Z,35.71
2022-08-03T13:25:27.610Z,35.74
2022-08-03T13:27:07.376Z,35.75
2022-08-03T13:30:26.922Z,35.8
2022-08-03T13:32:06.687Z,35.84
2022-08-03T13:33:46.457Z,35.88
2022-08-03T13:37:05.990Z,35.9
2022-08-03T13:38:45.766Z,35.95
2022-08-03T13:40:25.559Z,35.93
2022-08-03T13:42:05.318Z,35.97
2022-08-03T13:43:45.074Z,36
2022-08-03T13:45:24.869Z,36.02
2022-08-03T13:47:04.621Z,36.06
2022-08-03T13:48:44.387Z,36.05
2022-08-03T13:50:24.173Z,36.09
2022-08-03T13:52:03.940Z,36.12
2022-08-03T13:53:43.711Z,36.13
2022-08-03T13:55:23.490Z,36.13
2022-08-03T13:57:03.237Z,36.18
2022-08-03T13:58:43.014Z,36.18
2022-08-03T14:00:22.783Z,36.24
2022-08-03T14:02:02.562Z,36.24
2022-08-03T14:03:42.340Z,36.25
2022-08-03T14:05:22.096Z,36.27
2022-08-03T14:07:01.872Z,36.28
2022-08-03T14:08:41.626Z,36.31
2022-08-03T14:10:21.407Z,36.34
2022-08-03T14:12:01.181Z,36.37
2022-08-03T14:13:40.959Z,36.39
2022-08-03T14:15:20.712Z,36.4
2022-08-03T14:17:00.492Z,36.41
2022-08-03T14:18:40.262Z,36.43
2022-08-03T14:20:20.035Z,36.43
2022-08-03T14:21:59.808Z,36.48
2022-08-03T14:23:39.575Z,36.49
2022-08-03T14:25:19.370Z,36.53
2022-08-03T14:26:59.126Z,36.53
2022-08-03T14:28:38.888Z,36.55
2022-08-03T14:30:18.653Z,36.58
2022-08-03T14:31:58.433Z,36.59
2022-08-03T14:33:38.216Z,36.61
2022-08-03T14:35:17.966Z,36.63
2022-08-03T14:36:57.729Z,36.66
2022-08-03T14:38:37.530Z,36.66
2022-08-03T14:40:17.269Z,36.68
2022-08-03T14:45:16.626Z,36.75
2022-08-03T14:46:56.357Z,36.75
2022-08-03T14:48:36.129Z,36.75
2022-08-03T14:50:28.415Z,36.78
2022-08-03T14:51:55.679Z,36.8
2022-08-03T14:53:35.442Z,36.8
2022-08-03T14:55:15.221Z,36.83
2022-08-03T14:56:54.975Z,36.86
2022-08-03T14:58:34.741Z,36.84
2022-08-03T15:00:14.538Z,36.84
2022-08-03T15:01:54.297Z,36.89
2022-08-03T15:03:34.065Z,36.91
2022-08-03T15:05:13.847Z,36.91
2022-08-03T15:06:53.612Z,36.93
2022-08-03T15:08:33.388Z,36.93
2022-08-03T15:10:13.156Z,36.96
2022-08-03T15:11:52.931Z,36.99
2022-08-03T15:13:32.684Z,37
2022-08-03T15:15:12.450Z,37.03
2022-08-03T15:16:52.222Z,37.04
2022-08-03T15:18:32.020Z,37.05
2022-08-03T15:20:11.790Z,37.07
2022-08-03T15:21:51.540Z,37.09
2022-08-03T15:23:31.305Z,37.09
2022-08-03T15:25:11.090Z,37.11
2022-08-03T15:26:50.848Z,37.13
2022-08-03T15:28:30.621Z,37.13
2022-08-03T15:30:10.389Z,37.16
2022-08-03T15:31:50.171Z,37.16
2022-08-03T15:36:49.474Z,37.21
2022-08-03T15:38:29.254Z,37.2
2022-08-03T15:40:09.012Z,37.24
2022-08-03T15:41:48.799Z,37.24
2022-08-03T15:43:28.577Z,37.25
2022-08-03T15:45:08.321Z,37.25
2022-08-03T15:46:48.124Z,37.27
2022-08-03T15:48:27.877Z,37.27
2022-08-03T15:50:07.652Z,37.3
2022-08-03T15:51:47.415Z,37.31
2022-08-03T15:53:27.182Z,37.31
2022-08-03T15:55:06.954Z,37.32
2022-08-03T15:56:46.726Z,37.32
2022-08-03T15:58:26.481Z,37.32
2022-08-03T16:00:06.264Z,37.33
2022-08-03T16:01:46.060Z,37.34
2022-08-03T16:03:25.803Z,37.34
2022-08-03T16:05:05.572Z,37.36
2022-08-03T16:06:45.354Z,37.38
2022-08-03T16:10:04.885Z,37.38
2022-08-03T16:11:44.657Z,37.37
2022-08-03T16:13:24.426Z,37.37
2022-08-03T16:15:04.200Z,37.38
2022-08-03T16:16:43.991Z,37.38
2022-08-03T16:18:23.728Z,37.39
2022-08-03T16:20:03.519Z,37.39
2022-08-03T16:21:43.292Z,37.38
2022-08-03T16:23:23.051Z,37.37
2022-08-03T16:25:02.841Z,37.38
2022-08-03T16:26:42.593Z,37.39
2022-08-03T16:30:02.212Z,37.39
2022-08-03T16:31:41.894Z,37.38
2022-08-03T16:33:21.689Z,37.39
2022-08-03T16:35:01.449Z,37.39
2022-08-03T16:36:41.209Z,37.37
2022-08-03T16:38:20.997Z,37.39
2022-08-03T16:40:00.746Z,37.38
2022-08-03T16:41:40.530Z,37.38
2022-08-03T16:43:20.295Z,37.37
2022-08-03T16:45:00.086Z,37.4
2022-08-03T16:46:39.824Z,37.38
2022-08-03T16:48:19.601Z,37.38
2022-08-03T16:49:59.379Z,37.39
2022-08-03T16:51:39.141Z,37.39
2022-08-03T16:53:18.919Z,37.39
2022-08-03T16:56:38.465Z,37.39
2022-08-03T16:58:18.233Z,37.39
2022-08-03T16:59:57.975Z,37.39
2022-08-03T17:01:37.761Z,37.41
2022-08-03T17:03:17.522Z,37.43
2022-08-03T17:04:57.306Z,37.41
2022-08-03T17:06:37.098Z,37.41
2022-08-03T17:08:16.855Z,37.4
2022-08-03T17:09:56.616Z,37.41
2022-08-03T17:11:36.389Z,37.4
2022-08-03T17:13:16.158Z,37.41
2022-08-03T17:14:55.932Z,37.41
2022-08-03T17:16:35.670Z,37.4
2022-08-03T17:18:15.447Z,37.4
2022-08-03T17:19:55.212Z,37.41
2022-08-03T17:21:35.006Z,37.41
2022-08-03T17:23:14.766Z,37.39
2022-08-03T17:24:54.567Z,37.38
2022-08-03T17:26:34.301Z,37.39
2022-08-03T17:28:14.081Z,37.38
2022-08-03T17:29:53.848Z,37.38
2022-08-03T17:31:33.607Z,37.39
2022-08-03T17:33:13.368Z,37.38
2022-08-03T17:34:53.144Z,37.34
2022-08-03T17:36:32.920Z,37.34
2022-08-03T17:38:12.690Z,37.33
2022-08-03T17:39:52.448Z,37.32
2022-08-03T17:41:32.223Z,37.32
2022-08-03T17:43:11.998Z,37.29
2022-08-03T17:44:51.763Z,37.27
2022-08-03T17:46:31.546Z,37.28
2022-08-03T17:48:11.315Z,37.27
2022-08-03T17:49:51.061Z,37.23
2022-08-03T17:51:30.887Z,37.23
2022-08-03T17:53:10.631Z,37.23
2022-08-03T17:54:50.370Z,37.2
2022-08-03T17:56:30.153Z,37.18
2022-08-03T17:59:49.684Z,37.12
2022-08-03T18:01:29.453Z,37.09
2022-08-03T18:03:09.228Z,37.09
2022-08-03T18:04:49.003Z,37.09
2022-08-03T18:06:28.753Z,37.06
2022-08-03T18:08:08.539Z,37.05
2022-08-03T18:09:48.323Z,37.02
2022-08-03T18:11:28.065Z,37
2022-08-03T18:13:07.856Z,36.97
2022-08-03T18:14:47.639Z,36.93
2022-08-03T18:16:27.379Z,36.91
2022-08-03T18:18:07.154Z,36.91
2022-08-03T18:19:46.918Z,36.88
2022-08-03T18:21:26.733Z,36.87
2022-08-03T18:23:06.455Z,36.84
2022-08-03T18:24:46.221Z,36.82
2022-08-03T18:26:26.005Z,36.78
2022-08-03T18:28:05.758Z,36.77
2022-08-03T18:29:45.556Z,36.72
2022-08-03T18:31:25.313Z,36.65
2022-08-03T18:33:05.084Z,36.61
2022-08-03T18:34:44.818Z,36.57
2022-08-03T18:36:24.627Z,36.49
2022-08-03T18:38:04.338Z,36.48
2022-08-03T18:39:44.110Z,36.43
2022-08-03T18:41:23.867Z,36.39
2022-08-03T18:43:03.634Z,36.36
2022-08-03T18:44:43.401Z,36.31
2022-08-03T18:46:23.168Z,36.28
2022-08-03T18:48:02.975Z,36.22
2022-08-03T18:49:42.687Z,36.16
2022-08-03T18:51:22.468Z,36.15
2022-08-03T18:53:02.224Z,36.09
2022-08-03T18:54:42.003Z,36.07
2022-08-03T18:56:21.749Z,36
2022-08-03T18:58:01.587Z,35.96
2022-08-03T18:59:41.295Z,35.91
2022-08-03T19:01:37.945Z,35.89
2022-08-03T19:03:00.818Z,35.84
2022-08-03T19:04:40.571Z,35.79
2022-08-03T19:06:20.362Z,35.74
2022-08-03T19:08:00.126Z,35.68
2022-08-03T19:09:39.898Z,35.65
2022-08-03T19:11:19.691Z,35.59
2022-08-03T19:12:59.426Z,35.55
2022-08-03T19:14:39.198Z,35.5
2022-08-03T19:16:18.955Z,35.48
2022-08-03T19:17:58.742Z,35.4
2022-08-03T19:19:38.460Z,35.34
2022-08-03T19:21:18.253Z,35.27
2022-08-03T19:22:58.045Z,35.21
2022-08-03T19:24:37.814Z,35.15
2022-08-03T19:26:17.539Z,35.05
2022-08-03T19:29:37.086Z,34.91
2022-08-03T19:31:16.830Z,34.83
2022-08-03T19:32:56.662Z,34.77
2022-08-03T19:34:36.398Z,34.68
2022-08-03T19:36:16.155Z,34.62
2022-08-03T19:37:55.928Z,34.57
2022-08-03T19:39:35.680Z,34.49
2022-08-03T19:41:15.470Z,34.43
2022-08-03T19:42:55.235Z,34.34
2022-08-03T19:44:34.988Z,34.29
2022-08-03T19:46:14.789Z,34.21
2022-08-03T19:49:34.313Z,34.09
2022-08-03T19:51:14.069Z,34
2022-08-03T19:52:53.844Z,33.97
2022-08-03T19:56:13.370Z,33.84
2022-08-03T19:59:32.937Z,33.71
2022-08-03T20:01:12.685Z,33.64
2022-08-03T20:02:52.455Z,33.58
2022-08-03T20:04:32.199Z,33.5
2022-08-03T20:06:11.978Z,33.45
2022-08-03T20:07:51.778Z,33.4
2022-08-03T20:09:31.534Z,33.33
2022-08-03T20:11:11.263Z,33.29
2022-08-03T20:12:51.072Z,33.21
2022-08-03T20:14:30.827Z,33.16
2022-08-03T20:16:10.587Z,33.09
2022-08-03T20:17:50.335Z,33.04
2022-08-03T20:19:30.116Z,32.98
2022-08-03T20:21:09.868Z,32.93
2022-08-03T20:22:49.644Z,32.86
2022-08-03T20:24:29.401Z,32.8
2022-08-03T20:26:09.172Z,32.75
2022-08-03T20:27:48.928Z,32.7
2022-08-03T20:29:28.676Z,32.64
2022-08-03T20:31:08.453Z,32.59
2022-08-03T20:32:48.226Z,32.54
2022-08-03T20:34:28.015Z,32.48
2022-08-03T20:36:07.752Z,32.43
2022-08-03T20:37:47.503Z,32.38
2022-08-03T20:39:27.282Z,32.32
2022-08-03T20:41:07.071Z,32.25
2022-08-03T20:42:46.825Z,32.2
2022-08-03T20:44:26.572Z,32.16
2022-08-03T20:46:06.331Z,32.09
2022-08-03T20:49:25.878Z,32
2022-08-03T20:51:05.665Z,31.95
2022-08-03T20:52:45.438Z,31.9
2022-08-03T20:54:25.159Z,31.84
2022-08-03T20:56:04.931Z,31.8
2022-08-03T20:59:24.500Z,31.69
2022-08-03T21:01:04.225Z,31.63
2022-08-03T21:02:43.975Z,31.6
2022-08-03T21:04:23.758Z,31.54
2022-08-03T21:06:03.517Z,31.51
2022-08-03T21:07:43.269Z,31.45
2022-08-03T21:09:23.038Z,31.41
2022-08-03T21:11:02.820Z,31.35
2022-08-03T21:12:42.594Z,31.3
2022-08-03T21:14:22.345Z,31.26
2022-08-03T21:16:02.095Z,31.2
2022-08-03T21:17:41.869Z,31.17
2022-08-03T21:19:21.620Z,31.11
2022-08-03T21:21:01.389Z,31.06
2022-08-03T21:22:41.159Z,31.01
2022-08-03T21:24:20.914Z,30.97
2022-08-03T21:26:00.692Z,30.93
2022-08-03T21:27:40.486Z,30.9
2022-08-03T21:29:20.219Z,30.83
2022-08-03T21:30:59.981Z,30.78
2022-08-03T21:32:39.733Z,30.76
2022-08-03T21:34:19.517Z,30.7
2022-08-03T21:35:59.269Z,30.65
2022-08-03T21:37:39.038Z,30.61
2022-08-03T21:39:18.797Z,30.58
2022-08-03T21:40:58.571Z,30.54
2022-08-03T21:42:38.349Z,30.49
2022-08-03T21:44:18.106Z,30.44
2022-08-03T21:45:57.865Z,30.4
2022-08-03T21:47:37.613Z,30.35
2022-08-03T21:49:17.411Z,30.32
2022-08-03T21:50:57.153Z,30.28
2022-08-03T21:52:36.927Z,30.25
2022-08-03T21:54:16.671Z,30.18
2022-08-03T21:55:56.445Z,30.14
2022-08-03T21:57:36.204Z,30.12
2022-08-03T21:59:15.985Z,30.08
2022-08-03T22:00:55.735Z,30.02
2022-08-03T22:02:35.518Z,29.99
2022-08-03T22:04:15.266Z,29.94
2022-08-03T22:05:55.034Z,29.91
2022-08-03T22:09:14.570Z,29.83
2022-08-03T22:10:54.331Z,29.79
2022-08-03T22:12:34.098Z,29.76
2022-08-03T22:14:13.857Z,29.71
2022-08-03T22:15:53.635Z,29.66
2022-08-03T22:17:33.393Z,29.63
2022-08-03T22:19:13.145Z,29.59
2022-08-03T22:20:52.938Z,29.54
2022-08-03T22:22:32.675Z,29.52
2022-08-03T22:24:12.459Z,29.47
2022-08-03T22:25:52.220Z,29.45
2022-08-03T22:27:31.998Z,29.39
2022-08-03T22:29:11.751Z,29.35
2022-08-03T22:30:51.530Z,29.34
2022-08-03T22:32:31.272Z,29.28
2022-08-03T22:34:11.028Z,29.26
2022-08-03T22:35:50.808Z,29.22
2022-08-03T22:39:10.338Z,29.15